Time;durP1;ratioP1;P1;durP2;ratioP2;P2;SDS_P1;SDS_P2;PMS_P1;PMS_P2;Temp;Humidity;BMP_temperature;BMP_pressure;BME280_temperature;BME280_humidity;BME280_pressure;Samples;Min_cycle;Max_cycle;Signal;HPM_P1;HPM_P2
2023/08/24 00:00:14;;;;;;;3.27;1.40;;;;;;;;;;5065000;28;20102;-63
2023/08/24 00:02:41;;;;;;;2.50;1.37;;;;;;;;;;5058801;28;20032;-62
2023/08/24 00:05:08;;;;;;;4.67;1.40;;;;;;;;;;5066941;28;20499;-63
2023/08/24 00:07:34;;;;;;;3.47;1.73;;;;;;;;;;5061827;28;20068;-62
2023/08/24 00:10:01;;;;;;;2.47;1.63;;;;;;;;;;5057133;28;20095;-62
2023/08/24 00:12:28;;;;;;;2.50;1.23;;;;;;;;;;5069380;28;20371;-62
2023/08/24 00:14:54;;;;;;;1.97;1.47;;;;;;;;;;5071800;28;20036;-63
2023/08/24 00:17:22;;;;;;;3.20;1.90;;;;;;;;;;5071586;28;20017;-63
2023/08/24 00:19:49;;;;;;;2.27;1.40;;;;;;;;;;5064476;28;20036;-63
2023/08/24 00:22:16;;;;;;;7.40;1.67;;;;;;;;;;5061040;28;20032;-63
2023/08/24 00:24:42;;;;;;;3.73;1.83;;;;;;;;;;5066742;28;20015;-63
2023/08/24 00:27:10;;;;;;;5.17;1.63;;;;;;;;;;5061199;28;20035;-63
2023/08/24 00:29:36;;;;;;;5.23;1.97;;;;;;;;;;5061465;28;20486;-62
2023/08/24 00:32:03;;;;;;;3.43;1.57;;;;;;;;;;5056326;28;20025;-64
2023/08/24 00:34:30;;;;;;;5.03;1.67;;;;;;;;;;5055463;28;20017;-63
2023/08/24 00:36:56;;;;;;;7.13;1.70;;;;;;;;;;5050953;28;20427;-63
2023/08/24 00:39:23;;;;;;;8.83;1.93;;;;;;;;;;5055448;28;20020;-64
2023/08/24 00:41:50;;;;;;;3.73;1.67;;;;;;;;;;5072209;28;20074;-62
2023/08/24 00:44:17;;;;;;;2.20;1.20;;;;;;;;;;5070972;28;20048;-62
2023/08/24 00:46:43;;;;;;;2.53;1.47;;;;;;;;;;5066748;28;20024;-63
2023/08/24 00:49:10;;;;;;;3.50;1.60;;;;;;;;;;5049348;28;20365;-62
2023/08/24 00:51:37;;;;;;;2.70;1.13;;;;;;;;;;5060626;28;20028;-63
2023/08/24 00:54:04;;;;;;;1.37;0.90;;;;;;;;;;5062844;28;20135;-64
2023/08/24 00:56:31;;;;;;;2.07;1.10;;;;;;;;;;5065492;28;20054;-62
2023/08/24 00:58:58;;;;;;;2.40;1.33;;;;;;;;;;5068192;28;20416;-62
2023/08/24 01:01:25;;;;;;;2.73;1.37;;;;;;;;;;5066351;28;20055;-62
2023/08/24 01:03:52;;;;;;;3.67;1.50;;;;;;;;;;5065885;28;20038;-63
2023/08/24 01:06:18;;;;;;;2.77;1.70;;;;;;;;;;5060189;28;20052;-62
2023/08/24 01:08:45;;;;;;;5.97;2.07;;;;;;;;;;5060956;28;20033;-62
2023/08/24 01:11:33;;;;;;;5.73;1.33;;;;;;;;;;5064446;28;20035;-63
2023/08/24 01:14:14;;;;;;;1.57;0.90;;;;;;;;;;5059714;28;20072;-62
2023/08/24 01:16:43;;;;;;;7.17;1.87;;;;;;;;;;5066273;28;20356;-63
2023/08/24 01:19:15;;;;;;;13.70;1.30;;;;;;;;;;5071596;28;20542;-62
2023/08/24 01:21:42;;;;;;;0.67;0.50;;;;;;;;;;5071116;28;20021;-62
2023/08/24 01:24:14;;;;;;;2.23;1.37;;;;;;;;;;5062093;28;20013;-62
2023/08/24 01:26:42;;;;;;;1.13;0.83;;;;;;;;;;5066016;28;20033;-62
2023/08/24 01:29:09;;;;;;;6.33;0.93;;;;;;;;;;5066820;28;20032;-63
2023/08/24 01:31:36;;;;;;;16.17;2.07;;;;;;;;;;5059854;28;20021;-62
2023/08/24 01:34:03;;;;;;;5.07;1.20;;;;;;;;;;5056095;28;20031;-62
2023/08/24 01:36:30;;;;;;;1.93;0.93;;;;;;;;;;5052209;28;20032;-63
2023/08/24 01:39:06;;;;;;;6.53;1.53;;;;;;;;;;5068989;28;20028;-63
2023/08/24 01:41:35;;;;;;;1.90;1.03;;;;;;;;;;5074516;28;20025;-62
2023/08/24 01:44:04;;;;;;;2.67;1.27;;;;;;;;;;5074740;28;20123;-62
2023/08/24 01:46:32;;;;;;;12.30;1.03;;;;;;;;;;5075471;28;20032;-62
2023/08/24 01:48:59;;;;;;;1.53;1.10;;;;;;;;;;5074979;28;20502;-62
2023/08/24 01:51:25;;;;;;;4.40;2.10;;;;;;;;;;5068184;28;20520;-62
2023/08/24 01:53:53;;;;;;;2.07;1.30;;;;;;;;;;5059458;28;20032;-62
2023/08/24 01:56:19;;;;;;;1.50;1.00;;;;;;;;;;5059444;28;20091;-62
2023/08/24 01:58:46;;;;;;;1.73;0.90;;;;;;;;;;5049888;28;20380;-62
2023/08/24 02:01:12;;;;;;;4.30;1.67;;;;;;;;;;5053310;28;20021;-62
2023/08/24 02:03:40;;;;;;;1.63;0.87;;;;;;;;;;5055253;28;20029;-62
2023/08/24 02:06:07;;;;;;;16.83;1.53;;;;;;;;;;5074835;28;20095;-63
2023/08/24 02:08:34;;;;;;;3.27;1.43;;;;;;;;;;5075027;28;20367;-62
2023/08/24 02:11:00;;;;;;;12.37;1.53;;;;;;;;;;5074089;28;20020;-62
2023/08/24 02:13:27;;;;;;;2.20;1.00;;;;;;;;;;5074048;28;20086;-62
2023/08/24 02:16:05;;;;;;;2.43;1.33;;;;;;;;;;5067560;28;20047;-62
2023/08/24 02:18:32;;;;;;;3.03;1.50;;;;;;;;;;5089802;28;20093;-62
2023/08/24 02:20:59;;;;;;;5.53;1.00;;;;;;;;;;5069992;28;20357;-62
2023/08/24 02:23:26;;;;;;;5.00;2.20;;;;;;;;;;5068054;28;20028;-62
2023/08/24 02:25:52;;;;;;;1.73;1.03;;;;;;;;;;5073965;28;20017;-62
2023/08/24 02:28:19;;;;;;;1.50;0.93;;;;;;;;;;5069814;28;20025;-63
2023/08/24 02:30:46;;;;;;;2.37;1.00;;;;;;;;;;5073293;28;20032;-62
2023/08/24 02:33:13;;;;;;;2.20;1.30;;;;;;;;;;5073285;28;20387;-62
2023/08/24 02:35:39;;;;;;;1.33;0.83;;;;;;;;;;5070211;28;20112;-61
2023/08/24 02:38:06;;;;;;;5.20;1.10;;;;;;;;;;5059122;28;20024;-62
2023/08/24 02:40:33;;;;;;;2.37;1.23;;;;;;;;;;5067814;28;20094;-61
2023/08/24 02:42:59;;;;;;;0.40;0.30;;;;;;;;;;5056177;28;20101;-61
2023/08/24 02:45:26;;;;;;;1.00;0.67;;;;;;;;;;5063108;28;20686;-62
2023/08/24 02:47:53;;;;;;;0.87;0.77;;;;;;;;;;5064149;28;20029;-61
2023/08/24 02:50:21;;;;;;;3.00;1.17;;;;;;;;;;5065921;28;20031;-62
2023/08/24 02:52:48;;;;;;;3.17;1.03;;;;;;;;;;5073936;28;20046;-62
2023/08/24 02:55:15;;;;;;;1.93;1.10;;;;;;;;;;5074120;28;20544;-61
2023/08/24 02:57:41;;;;;;;2.63;1.40;;;;;;;;;;5072351;28;20077;-62
2023/08/24 03:00:09;;;;;;;1.00;0.77;;;;;;;;;;5068404;28;20025;-63
2023/08/24 03:02:37;;;;;;;1.40;0.93;;;;;;;;;;5061320;28;20025;-64
2023/08/24 03:05:04;;;;;;;6.60;1.60;;;;;;;;;;5067938;28;20016;-65
2023/08/24 03:07:30;;;;;;;1.90;1.03;;;;;;;;;;5050282;28;20083;-64
2023/08/24 03:09:57;;;;;;;13.03;1.27;;;;;;;;;;5072603;28;20029;-64
2023/08/24 03:12:24;;;;;;;1.13;0.73;;;;;;;;;;5073527;28;20059;-64
2023/08/24 03:14:54;;;;;;;0.40;0.40;;;;;;;;;;5072351;28;20040;-63
2023/08/24 03:17:22;;;;;;;1.07;0.77;;;;;;;;;;5073087;28;20478;-64
2023/08/24 03:19:48;;;;;;;2.20;0.93;;;;;;;;;;5073309;28;20029;-64
2023/08/24 03:22:15;;;;;;;1.57;1.00;;;;;;;;;;5069221;28;20036;-63
2023/08/24 03:24:43;;;;;;;1.77;1.27;;;;;;;;;;5066264;28;20033;-64
2023/08/24 03:27:10;;;;;;;1.20;0.83;;;;;;;;;;5068364;28;20035;-63
2023/08/24 03:29:36;;;;;;;2.07;0.63;;;;;;;;;;5066764;28;20032;-63
2023/08/24 03:32:03;;;;;;;1.73;1.00;;;;;;;;;;5070958;28;20028;-64
2023/08/24 03:34:31;;;;;;;1.60;1.03;;;;;;;;;;5072970;28;20024;-65
2023/08/24 03:36:58;;;;;;;3.27;0.90;;;;;;;;;;5063376;28;20157;-64
2023/08/24 03:39:24;;;;;;;10.77;1.20;;;;;;;;;;5061200;28;20384;-64
2023/08/24 03:41:51;;;;;;;1.10;0.57;;;;;;;;;;5071932;28;20025;-64
2023/08/24 03:44:18;;;;;;;1.87;1.03;;;;;;;;;;5068590;28;20884;-64
2023/08/24 03:46:45;;;;;;;1.63;0.87;;;;;;;;;;5066669;28;20052;-64
2023/08/24 03:49:11;;;;;;;2.30;1.23;;;;;;;;;;5056210;28;20063;-64
2023/08/24 03:51:38;;;;;;;1.10;0.90;;;;;;;;;;5047623;28;20085;-64
2023/08/24 03:54:05;;;;;;;2.47;0.90;;;;;;;;;;5050440;28;20380;-64
2023/08/24 03:56:32;;;;;;;1.10;0.87;;;;;;;;;;5063506;28;20029;-63
2023/08/24 03:58:59;;;;;;;10.70;1.00;;;;;;;;;;5051940;28;20017;-64
2023/08/24 04:01:25;;;;;;;1.63;0.90;;;;;;;;;;5053146;28;20543;-64
2023/08/24 04:03:52;;;;;;;1.47;1.10;;;;;;;;;;5036777;28;20432;-64
2023/08/24 04:06:21;;;;;;;2.77;1.50;;;;;;;;;;5069234;28;20115;-64
2023/08/24 04:08:48;;;;;;;1.43;0.80;;;;;;;;;;5066154;28;20042;-64
2023/08/24 04:11:15;;;;;;;15.93;1.67;;;;;;;;;;5067205;28;20486;-64
2023/08/24 04:13:41;;;;;;;3.37;1.50;;;;;;;;;;5065183;28;20025;-64
2023/08/24 04:16:08;;;;;;;3.63;0.90;;;;;;;;;;5069045;28;20047;-63
2023/08/24 04:18:35;;;;;;;0.97;0.80;;;;;;;;;;5072648;28;20039;-63
2023/08/24 04:21:01;;;;;;;4.30;1.50;;;;;;;;;;5072609;28;20033;-63
2023/08/24 04:23:28;;;;;;;3.20;1.47;;;;;;;;;;5072508;28;20032;-65
2023/08/24 04:25:55;;;;;;;1.63;1.23;;;;;;;;;;5072024;28;20115;-64
2023/08/24 04:28:22;;;;;;;7.70;1.77;;;;;;;;;;5069922;28;20028;-63
2023/08/24 04:30:55;;;;;;;2.63;1.43;;;;;;;;;;5066425;28;20028;-64
2023/08/24 04:33:22;;;;;;;2.87;1.30;;;;;;;;;;5066851;28;20378;-64
2023/08/24 04:35:50;;;;;;;2.43;1.47;;;;;;;;;;5065856;28;20407;-64
2023/08/24 04:38:17;;;;;;;4.83;1.23;;;;;;;;;;5054176;28;20082;-63
2023/08/24 04:40:54;;;;;;;4.27;1.40;;;;;;;;;;5052478;28;20021;-64
2023/08/24 04:43:21;;;;;;;1.93;1.40;;;;;;;;;;5067199;28;20120;-63
2023/08/24 04:45:49;;;;;;;3.63;1.37;;;;;;;;;;5061272;28;20483;-63
2023/08/24 04:48:16;;;;;;;2.67;1.30;;;;;;;;;;5069824;28;20035;-63
2023/08/24 04:50:44;;;;;;;0.73;0.73;;;;;;;;;;5062839;28;20056;-64
2023/08/24 04:53:12;;;;;;;2.70;1.43;;;;;;;;;;5064401;28;20052;-63
2023/08/24 04:55:39;;;;;;;0.67;0.67;;;;;;;;;;5060920;28;20037;-63
2023/08/24 04:58:06;;;;;;;1.43;1.10;;;;;;;;;;5062305;28;20032;-64
2023/08/24 05:00:33;;;;;;;0.97;0.80;;;;;;;;;;5065312;28;20074;-64
2023/08/24 05:02:59;;;;;;;1.23;0.93;;;;;;;;;;5059206;28;20029;-63
2023/08/24 05:05:26;;;;;;;2.40;1.30;;;;;;;;;;5051776;28;20052;-63
2023/08/24 05:07:54;;;;;;;5.10;1.30;;;;;;;;;;5059379;28;20025;-63
2023/08/24 05:10:21;;;;;;;3.80;1.40;;;;;;;;;;5071710;28;20032;-63
2023/08/24 05:12:48;;;;;;;0.43;0.33;;;;;;;;;;5068546;28;20044;-64
2023/08/24 05:15:14;;;;;;;4.60;1.43;;;;;;;;;;5065062;28;20028;-64
2023/08/24 05:17:41;;;;;;;0.90;0.60;;;;;;;;;;5066510;28;20024;-64
2023/08/24 05:20:10;;;;;;;1.23;0.90;;;;;;;;;;5065965;28;20025;-64
2023/08/24 05:22:37;;;;;;;0.80;0.60;;;;;;;;;;5065941;28;20028;-64
2023/08/24 05:25:04;;;;;;;9.33;1.00;;;;;;;;;;5068642;28;20040;-64
2023/08/24 05:27:31;;;;;;;21.13;1.37;;;;;;;;;;5071860;28;20024;-64
2023/08/24 05:29:58;;;;;;;1.43;0.87;;;;;;;;;;5071674;28;20016;-63
2023/08/24 05:32:25;;;;;;;5.33;0.67;;;;;;;;;;5071093;28;20025;-63
2023/08/24 05:34:51;;;;;;;5.50;0.97;;;;;;;;;;5071351;28;20020;-64
2023/08/24 05:37:18;;;;;;;1.17;0.50;;;;;;;;;;5070623;28;20114;-63
2023/08/24 05:39:45;;;;;;;0.87;0.77;;;;;;;;;;5066560;28;20155;-63
2023/08/24 05:42:11;;;;;;;1.23;0.70;;;;;;;;;;5066371;28;20064;-63
2023/08/24 05:44:38;;;;;;;0.50;0.40;;;;;;;;;;5066508;28;20041;-63
2023/08/24 05:47:05;;;;;;;0.90;0.50;;;;;;;;;;5066598;28;20502;-63
2023/08/24 05:49:31;;;;;;;17.00;1.23;;;;;;;;;;5067365;28;20035;-64
2023/08/24 05:51:58;;;;;;;1.10;0.70;;;;;;;;;;5071071;28;20096;-63
2023/08/24 05:54:24;;;;;;;2.80;1.10;;;;;;;;;;5071337;28;20040;-63
2023/08/24 05:56:51;;;;;;;0.73;0.67;;;;;;;;;;5071014;28;20040;-65
2023/08/24 05:59:18;;;;;;;1.77;0.73;;;;;;;;;;5071547;28;20020;-65
2023/08/24 06:01:44;;;;;;;1.07;0.63;;;;;;;;;;5070847;28;20029;-65
2023/08/24 06:04:12;;;;;;;1.50;0.80;;;;;;;;;;5066339;28;20029;-65
2023/08/24 06:06:39;;;;;;;1.90;0.90;;;;;;;;;;5065883;28;20488;-65
2023/08/24 06:09:06;;;;;;;2.47;0.50;;;;;;;;;;5066305;28;20035;-65
2023/08/24 06:11:35;;;;;;;1.13;0.80;;;;;;;;;;5066144;28;20028;-65
2023/08/24 06:14:02;;;;;;;3.60;1.47;;;;;;;;;;5067016;28;20020;-65
2023/08/24 06:16:29;;;;;;;1.33;0.90;;;;;;;;;;5071215;28;20492;-65
2023/08/24 06:18:56;;;;;;;0.50;0.50;;;;;;;;;;5071251;28;20017;-65
2023/08/24 06:21:23;;;;;;;5.03;0.80;;;;;;;;;;5072618;28;20027;-65
2023/08/24 06:23:49;;;;;;;1.60;1.13;;;;;;;;;;5074694;28;20025;-64
2023/08/24 06:26:16;;;;;;;0.73;0.50;;;;;;;;;;5074774;28;20025;-65
2023/08/24 06:28:43;;;;;;;0.60;0.40;;;;;;;;;;5069703;28;20483;-65
2023/08/24 06:31:09;;;;;;;1.23;0.67;;;;;;;;;;5069129;28;20047;-64
2023/08/24 06:33:36;;;;;;;0.60;0.57;;;;;;;;;;5069673;28;20055;-65
2023/08/24 06:36:11;;;;;;;1.30;0.83;;;;;;;;;;5069391;28;20028;-65
2023/08/24 06:38:38;;;;;;;0.20;0.20;;;;;;;;;;5070243;28;20017;-64
2023/08/24 06:41:05;;;;;;;0.47;0.33;;;;;;;;;;5074344;28;20021;-65
2023/08/24 06:43:32;;;;;;;0.53;0.13;;;;;;;;;;5074507;28;20028;-64
2023/08/24 06:45:58;;;;;;;0.77;0.40;;;;;;;;;;5074305;28;20093;-65
2023/08/24 06:48:25;;;;;;;0.20;0.20;;;;;;;;;;5074430;28;20024;-64
2023/08/24 06:50:52;;;;;;;0.50;0.33;;;;;;;;;;5074343;28;20123;-64
2023/08/24 06:53:18;;;;;;;1.30;0.90;;;;;;;;;;5050475;28;20107;-64
2023/08/24 06:55:45;;;;;;;1.60;0.63;;;;;;;;;;5051218;28;20043;-64
2023/08/24 06:58:12;;;;;;;0.73;0.57;;;;;;;;;;5069167;28;20025;-64
2023/08/24 07:00:39;;;;;;;2.10;0.80;;;;;;;;;;5069216;28;20099;-64
2023/08/24 07:03:06;;;;;;;0.63;0.40;;;;;;;;;;5069091;28;20380;-64
2023/08/24 07:05:33;;;;;;;6.60;0.53;;;;;;;;;;5073917;28;20491;-65
2023/08/24 07:08:02;;;;;;;0.37;0.33;;;;;;;;;;5073969;28;20033;-65
2023/08/24 07:10:29;;;;;;;0.40;0.27;;;;;;;;;;5074134;28;20046;-65
2023/08/24 07:12:55;;;;;;;1.47;0.57;;;;;;;;;;5073868;28;20036;-65
2023/08/24 07:15:22;;;;;;;0.67;0.50;;;;;;;;;;5073835;28;20495;-64
2023/08/24 07:17:49;;;;;;;0.40;0.40;;;;;;;;;;5068978;28;20468;-64
2023/08/24 07:20:16;;;;;;;1.03;0.70;;;;;;;;;;5068677;28;20024;-64
2023/08/24 07:22:42;;;;;;;0.83;0.60;;;;;;;;;;5068381;28;20067;-65
2023/08/24 07:25:11;;;;;;;1.77;0.60;;;;;;;;;;5068345;28;20093;-64
2023/08/24 07:27:37;;;;;;;0.70;0.50;;;;;;;;;;5068510;28;20031;-65
2023/08/24 07:30:05;;;;;;;0.37;0.30;;;;;;;;;;5073918;28;20052;-65
2023/08/24 07:32:33;;;;;;;1.17;0.60;;;;;;;;;;5072933;28;20024;-64
2023/08/24 07:34:59;;;;;;;0.87;0.60;;;;;;;;;;5073397;28;20476;-65
2023/08/24 07:37:29;;;;;;;2.73;0.77;;;;;;;;;;5073432;28;20111;-64
2023/08/24 07:39:55;;;;;;;0.33;0.30;;;;;;;;;;5072917;28;20055;-64
2023/08/24 07:42:22;;;;;;;1.07;0.70;;;;;;;;;;5068265;28;20032;-64
2023/08/24 07:44:49;;;;;;;1.23;0.43;;;;;;;;;;5068198;28;20039;-64
2023/08/24 07:47:17;;;;;;;1.03;0.53;;;;;;;;;;5067924;28;20033;-65
2023/08/24 07:49:44;;;;;;;1.00;0.70;;;;;;;;;;5068231;28;20028;-65
2023/08/24 07:52:12;;;;;;;1.43;0.63;;;;;;;;;;5068107;28;20035;-65
2023/08/24 07:54:39;;;;;;;0.53;0.50;;;;;;;;;;5072538;28;20099;-65
2023/08/24 07:57:06;;;;;;;0.53;0.53;;;;;;;;;;5072434;28;20038;-64
2023/08/24 07:59:33;;;;;;;3.27;0.80;;;;;;;;;;5072708;28;20103;-64
2023/08/24 08:01:59;;;;;;;0.47;0.40;;;;;;;;;;5072920;28;20025;-64
2023/08/24 08:04:26;;;;;;;0.93;0.70;;;;;;;;;;5072869;28;20056;-64
2023/08/24 08:06:53;;;;;;;0.40;0.40;;;;;;;;;;5067933;28;20039;-65
2023/08/24 08:09:19;;;;;;;3.50;0.93;;;;;;;;;;5067828;28;20103;-64
2023/08/24 08:11:46;;;;;;;2.17;0.87;;;;;;;;;;5067093;28;20032;-64
2023/08/24 08:14:13;;;;;;;1.90;0.93;;;;;;;;;;5067820;28;20100;-64
2023/08/24 08:16:39;;;;;;;0.50;0.47;;;;;;;;;;5067089;28;20545;-64
2023/08/24 08:19:07;;;;;;;0.63;0.53;;;;;;;;;;5072071;28;20036;-65
2023/08/24 08:21:33;;;;;;;1.23;0.70;;;;;;;;;;5072646;28;20048;-64
2023/08/24 08:24:00;;;;;;;0.87;0.73;;;;;;;;;;5072606;28;20020;-64
2023/08/24 08:26:27;;;;;;;0.93;0.53;;;;;;;;;;5071865;28;20074;-64
2023/08/24 08:28:53;;;;;;;1.23;0.67;;;;;;;;;;5072187;28;20483;-64
2023/08/24 08:31:20;;;;;;;2.20;1.13;;;;;;;;;;5068441;28;20116;-65
2023/08/24 08:33:47;;;;;;;0.90;0.57;;;;;;;;;;5067418;28;20027;-64
2023/08/24 08:36:13;;;;;;;0.57;0.50;;;;;;;;;;5067060;28;20062;-64
2023/08/24 08:38:40;;;;;;;1.77;1.00;;;;;;;;;;5067637;28;20103;-64
2023/08/24 08:41:07;;;;;;;3.60;1.00;;;;;;;;;;5067215;28;20025;-64
2023/08/24 08:43:33;;;;;;;0.40;0.40;;;;;;;;;;5070644;28;20099;-64
2023/08/24 08:46:00;;;;;;;0.63;0.57;;;;;;;;;;5071755;28;20033;-64
2023/08/24 08:48:29;;;;;;;0.30;0.30;;;;;;;;;;5071919;28;20089;-64
2023/08/24 08:50:56;;;;;;;0.47;0.30;;;;;;;;;;5070796;28;20025;-64
2023/08/24 08:53:23;;;;;;;1.20;0.40;;;;;;;;;;5072129;28;20078;-64
2023/08/24 08:55:53;;;;;;;0.93;0.43;;;;;;;;;;5068147;28;20033;-65
2023/08/24 08:58:21;;;;;;;1.80;0.93;;;;;;;;;;5046667;28;20033;-64
2023/08/24 09:00:48;;;;;;;0.60;0.53;;;;;;;;;;5047014;28;20394;-64
2023/08/24 09:03:23;;;;;;;1.77;0.80;;;;;;;;;;5046846;28;20158;-65
2023/08/24 09:05:50;;;;;;;0.60;0.43;;;;;;;;;;5047295;28;20426;-65
2023/08/24 09:08:20;;;;;;;1.57;0.70;;;;;;;;;;5071422;28;20023;-64
2023/08/24 09:10:48;;;;;;;1.73;0.80;;;;;;;;;;5071601;28;20020;-64
2023/08/24 09:13:15;;;;;;;3.40;0.97;;;;;;;;;;5071982;28;20410;-64
2023/08/24 09:15:41;;;;;;;0.87;0.67;;;;;;;;;;5071866;28;20033;-64
2023/08/24 09:18:08;;;;;;;1.03;0.80;;;;;;;;;;5071350;28;20029;-64
2023/08/24 09:20:35;;;;;;;1.57;0.70;;;;;;;;;;5067559;28;20028;-64
2023/08/24 09:23:02;;;;;;;1.43;0.60;;;;;;;;;;5067049;28;20468;-64
2023/08/24 09:25:29;;;;;;;1.10;0.70;;;;;;;;;;5066838;28;20052;-65
2023/08/24 09:27:59;;;;;;;0.57;0.47;;;;;;;;;;5066047;28;20040;-65
2023/08/24 09:30:32;;;;;;;2.13;0.83;;;;;;;;;;5066720;28;20488;-64
2023/08/24 09:33:09;;;;;;;0.73;0.50;;;;;;;;;;5071531;28;20165;-64
2023/08/24 09:35:36;;;;;;;0.37;0.37;;;;;;;;;;5071755;28;20033;-64
2023/08/24 09:38:19;;;;;;;0.30;0.30;;;;;;;;;;5070497;28;20016;-64
2023/08/24 09:40:50;;;;;;;0.93;0.70;;;;;;;;;;5071722;28;20056;-65
2023/08/24 09:43:17;;;;;;;1.27;0.73;;;;;;;;;;5071835;28;20024;-64
2023/08/24 09:45:54;;;;;;;0.50;0.50;;;;;;;;;;5066527;28;20032;-65
2023/08/24 09:48:21;;;;;;;1.87;1.10;;;;;;;;;;5065848;28;20029;-64
2023/08/24 09:50:49;;;;;;;1.43;0.57;;;;;;;;;;5066047;28;20028;-65
2023/08/24 09:53:20;;;;;;;1.03;0.40;;;;;;;;;;5066714;28;20020;-64
2023/08/24 09:55:54;;;;;;;0.70;0.47;;;;;;;;;;5069761;28;20055;-64
2023/08/24 09:58:21;;;;;;;10.38;0.70;;;;;;;;;;5075001;28;20367;-64
2023/08/24 10:00:48;;;;;;;0.67;0.60;;;;;;;;;;5074743;28;20017;-64
2023/08/24 10:03:37;;;;;;;0.10;0.10;;;;;;;;;;5075239;28;20412;-64
2023/08/24 10:06:04;;;;;;;0.60;0.50;;;;;;;;;;5074703;28;20468;-65
2023/08/24 10:08:34;;;;;;;14.63;0.97;;;;;;;;;;5073836;28;20060;-64
2023/08/24 10:11:00;;;;;;;2.60;0.80;;;;;;;;;;5069580;28;20033;-65
2023/08/24 10:13:45;;;;;;;0.77;0.63;;;;;;;;;;5052241;28;20031;-64
2023/08/24 10:16:14;;;;;;;0.80;0.70;;;;;;;;;;5069738;28;20036;-64
2023/08/24 10:18:41;;;;;;;1.20;0.80;;;;;;;;;;5069725;28;20378;-64
2023/08/24 10:21:08;;;;;;;1.67;0.73;;;;;;;;;;5072560;28;20479;-64
2023/08/24 10:23:35;;;;;;;0.43;0.40;;;;;;;;;;5074497;28;20485;-65
2023/08/24 10:26:06;;;;;;;0.20;0.20;;;;;;;;;;5074953;28;20502;-64
2023/08/24 10:28:33;;;;;;;1.10;0.60;;;;;;;;;;5074289;28;20119;-64
2023/08/24 10:31:01;;;;;;;0.60;0.50;;;;;;;;;;5074729;28;20107;-64
2023/08/24 10:33:28;;;;;;;1.00;0.50;;;;;;;;;;5072725;28;20024;-65
2023/08/24 10:35:55;;;;;;;2.77;0.53;;;;;;;;;;5069443;28;20028;-64
2023/08/24 10:38:28;;;;;;;0.80;0.40;;;;;;;;;;5069079;28;20032;-65
2023/08/24 10:40:55;;;;;;;0.13;0.13;;;;;;;;;;5069581;28;20024;-65
2023/08/24 10:43:25;;;;;;;1.17;0.50;;;;;;;;;;5069476;28;20024;-65
2023/08/24 10:46:02;;;;;;;2.90;0.97;;;;;;;;;;5071887;28;20032;-65
2023/08/24 10:48:32;;;;;;;0.73;0.63;;;;;;;;;;5073743;28;20075;-65
2023/08/24 10:51:20;;;;;;;2.77;1.00;;;;;;;;;;5074419;28;20167;-65
2023/08/24 10:53:54;;;;;;;0.70;0.60;;;;;;;;;;5074304;28;20021;-64
2023/08/24 10:56:21;;;;;;;0.70;0.53;;;;;;;;;;5074161;28;20503;-65
2023/08/24 10:59:08;;;;;;;4.03;0.80;;;;;;;;;;5070587;28;20112;-65
2023/08/24 11:01:35;;;;;;;0.63;0.37;;;;;;;;;;5069041;28;20039;-64
2023/08/24 11:04:07;;;;;;;0.53;0.50;;;;;;;;;;5068912;28;20033;-64
2023/08/24 11:06:34;;;;;;;0.70;0.47;;;;;;;;;;5068158;28;20052;-64
2023/08/24 11:09:15;;;;;;;0.73;0.50;;;;;;;;;;5068094;28;20055;-65
2023/08/24 11:11:42;;;;;;;0.57;0.50;;;;;;;;;;5073017;28;20537;-65
2023/08/24 11:14:32;;;;;;;0.77;0.43;;;;;;;;;;5073495;28;20439;-65
2023/08/24 11:17:02;;;;;;;0.20;0.20;;;;;;;;;;5073553;28;20491;-65
2023/08/24 11:19:30;;;;;;;0.90;0.63;;;;;;;;;;5073597;28;20024;-65
2023/08/24 11:21:56;;;;;;;0.70;0.53;;;;;;;;;;5073595;28;20468;-65
2023/08/24 11:24:23;;;;;;;0.40;0.40;;;;;;;;;;5068362;28;20031;-65
2023/08/24 11:26:52;;;;;;;5.90;1.27;;;;;;;;;;5068680;28;20476;-66
2023/08/24 11:29:19;;;;;;;0.73;0.50;;;;;;;;;;5068231;28;20017;-65
2023/08/24 11:31:45;;;;;;;0.30;0.30;;;;;;;;;;5067046;28;20029;-65
2023/08/24 11:34:15;;;;;;;12.03;0.60;;;;;;;;;;5067275;28;20050;-64
2023/08/24 11:36:43;;;;;;;2.67;0.70;;;;;;;;;;5072467;28;20029;-65
2023/08/24 11:39:14;;;;;;;0.57;0.37;;;;;;;;;;5073455;28;20028;-65
2023/08/24 11:41:41;;;;;;;0.67;0.43;;;;;;;;;;5072078;28;20032;-65
2023/08/24 11:44:08;;;;;;;0.70;0.50;;;;;;;;;;5072550;28;20017;-65
2023/08/24 11:46:34;;;;;;;0.63;0.53;;;;;;;;;;5066504;28;20098;-64
2023/08/24 11:49:01;;;;;;;0.87;0.40;;;;;;;;;;5060966;28;20064;-64
2023/08/24 11:51:28;;;;;;;1.43;0.60;;;;;;;;;;5058533;28;20019;-65
2023/08/24 11:53:58;;;;;;;1.70;0.80;;;;;;;;;;5051478;28;20037;-65
2023/08/24 11:56:24;;;;;;;0.73;0.37;;;;;;;;;;5068108;28;20025;-65
2023/08/24 11:58:51;;;;;;;0.00;0.00;;;;;;;;;;5057315;28;20021;-65
2023/08/24 12:01:18;;;;;;;2.30;0.30;;;;;;;;;;5068140;28;20032;-64
2023/08/24 12:03:45;;;;;;;0.10;0.10;;;;;;;;;;5058174;28;20028;-65
2023/08/24 12:06:12;;;;;;;0.20;0.10;;;;;;;;;;5072160;28;20024;-65
2023/08/24 12:08:40;;;;;;;0.00;0.00;;;;;;;;;;5070552;28;20024;-64
2023/08/24 12:11:11;;;;;;;15.93;0.73;;;;;;;;;;5067371;28;20535;-64
2023/08/24 12:13:38;;;;;;;0.53;0.27;;;;;;;;;;5067603;28;20020;-64
2023/08/24 12:16:05;;;;;;;0.00;0.00;;;;;;;;;;5030287;28;20369;-64
2023/08/24 12:18:36;;;;;;;0.27;0.20;;;;;;;;;;5051717;28;20040;-65
2023/08/24 12:21:04;;;;;;;0.00;0.00;;;;;;;;;;5053047;28;20382;-64
2023/08/24 12:23:31;;;;;;;0.10;0.10;;;;;;;;;;5068458;28;20467;-64
2023/08/24 12:25:57;;;;;;;0.10;0.10;;;;;;;;;;5071418;28;20035;-65
2023/08/24 12:28:24;;;;;;;0.10;0.03;;;;;;;;;;5071744;28;20095;-64
2023/08/24 12:30:51;;;;;;;0.10;0.03;;;;;;;;;;5072268;28;20021;-64
2023/08/24 12:33:36;;;;;;;0.07;0.07;;;;;;;;;;5071253;28;20048;-64
2023/08/24 12:36:03;;;;;;;0.40;0.20;;;;;;;;;;5070333;28;20029;-64
2023/08/24 12:38:30;;;;;;;5.73;0.53;;;;;;;;;;5066873;28;20089;-65
2023/08/24 12:40:57;;;;;;;1.23;0.97;;;;;;;;;;5067612;28;20113;-64
2023/08/24 12:43:23;;;;;;;2.83;1.50;;;;;;;;;;5049769;28;20063;-64
2023/08/24 12:45:50;;;;;;;4.53;1.43;;;;;;;;;;5067056;28;20063;-65
2023/08/24 12:48:16;;;;;;;2.43;1.07;;;;;;;;;;5068235;28;20404;-65
2023/08/24 12:50:43;;;;;;;1.83;1.30;;;;;;;;;;5071280;28;20420;-64
2023/08/24 12:53:10;;;;;;;4.60;1.60;;;;;;;;;;5071980;28;20032;-64
2023/08/24 12:55:37;;;;;;;2.23;1.37;;;;;;;;;;5071337;28;20032;-64
2023/08/24 12:58:04;;;;;;;4.00;1.10;;;;;;;;;;5071207;28;20403;-65
2023/08/24 13:00:31;;;;;;;2.20;0.97;;;;;;;;;;5071715;28;20020;-65
2023/08/24 13:02:57;;;;;;;0.60;0.50;;;;;;;;;;5066664;28;20096;-64
2023/08/24 13:05:25;;;;;;;0.40;0.40;;;;;;;;;;5066465;28;20028;-65
2023/08/24 13:07:51;;;;;;;0.40;0.30;;;;;;;;;;5066779;28;20027;-64
2023/08/24 13:10:18;;;;;;;1.10;0.30;;;;;;;;;;5066501;28;20033;-65
2023/08/24 13:12:44;;;;;;;1.37;0.60;;;;;;;;;;5067685;28;20031;-65
2023/08/24 13:15:11;;;;;;;0.40;0.30;;;;;;;;;;5071595;28;20040;-65
2023/08/24 13:17:38;;;;;;;0.37;0.30;;;;;;;;;;5071793;28;20141;-64
2023/08/24 13:20:06;;;;;;;0.83;0.47;;;;;;;;;;5071393;28;20024;-64
2023/08/24 13:22:32;;;;;;;1.77;0.40;;;;;;;;;;5071756;28;20655;-64
2023/08/24 13:24:59;;;;;;;0.97;0.50;;;;;;;;;;5071585;28;20044;-64
2023/08/24 13:27:26;;;;;;;0.80;0.50;;;;;;;;;;5066618;28;20063;-64
2023/08/24 13:29:56;;;;;;;1.00;0.60;;;;;;;;;;5067560;28;20553;-64
2023/08/24 13:32:23;;;;;;;1.07;0.67;;;;;;;;;;5070335;28;20468;-64
2023/08/24 13:34:50;;;;;;;0.63;0.60;;;;;;;;;;5070710;28;20030;-65
2023/08/24 13:37:18;;;;;;;1.90;0.80;;;;;;;;;;5071100;28;20067;-64
2023/08/24 13:39:45;;;;;;;0.67;0.40;;;;;;;;;;5074763;28;20502;-65
2023/08/24 13:42:12;;;;;;;4.53;0.63;;;;;;;;;;5075958;28;20418;-64
2023/08/24 13:44:39;;;;;;;0.60;0.40;;;;;;;;;;5075523;28;20027;-64
2023/08/24 13:47:06;;;;;;;0.67;0.30;;;;;;;;;;5075585;28;20020;-65
2023/08/24 13:49:32;;;;;;;0.83;0.50;;;;;;;;;;5075142;28;20031;-64
2023/08/24 13:51:59;;;;;;;0.70;0.40;;;;;;;;;;5052186;28;20032;-65
2023/08/24 13:54:26;;;;;;;0.57;0.47;;;;;;;;;;5069896;28;20052;-65
2023/08/24 13:56:53;;;;;;;1.00;0.70;;;;;;;;;;5069583;28;20478;-65
2023/08/24 13:59:21;;;;;;;0.20;0.20;;;;;;;;;;5070164;28;20143;-64
2023/08/24 14:01:48;;;;;;;0.20;0.20;;;;;;;;;;5070409;28;20060;-65
2023/08/24 14:04:14;;;;;;;0.37;0.33;;;;;;;;;;5074795;28;20390;-65
2023/08/24 14:06:41;;;;;;;0.70;0.50;;;;;;;;;;5075198;28;20054;-65
2023/08/24 14:09:07;;;;;;;0.10;0.10;;;;;;;;;;5075215;28;20025;-64
2023/08/24 14:11:34;;;;;;;1.00;0.63;;;;;;;;;;5074622;28;20025;-65
2023/08/24 14:14:01;;;;;;;2.23;0.57;;;;;;;;;;5074663;28;20025;-64
2023/08/24 14:16:27;;;;;;;0.57;0.40;;;;;;;;;;5069851;28;20357;-64
2023/08/24 14:18:54;;;;;;;0.73;0.43;;;;;;;;;;5069765;28;20098;-64
2023/08/24 14:21:23;;;;;;;0.90;0.60;;;;;;;;;;5069550;28;20102;-65
2023/08/24 14:23:50;;;;;;;0.30;0.30;;;;;;;;;;5069536;28;20027;-64
2023/08/24 14:26:16;;;;;;;5.10;0.53;;;;;;;;;;5069325;28;20039;-65
2023/08/24 14:28:50;;;;;;;0.13;0.10;;;;;;;;;;5074828;28;20020;-66
2023/08/24 14:31:20;;;;;;;0.13;0.13;;;;;;;;;;5056771;28;20024;-65
2023/08/24 14:33:46;;;;;;;0.13;0.10;;;;;;;;;;5074579;28;20266;-65
2023/08/24 14:36:13;;;;;;;0.47;0.37;;;;;;;;;;5074684;28;20063;-65
2023/08/24 14:38:40;;;;;;;2.53;1.07;;;;;;;;;;5074660;28;20025;-65
2023/08/24 14:41:08;;;;;;;0.77;0.40;;;;;;;;;;5067834;28;20448;-65
2023/08/24 14:43:34;;;;;;;0.40;0.40;;;;;;;;;;5069184;28;20418;-65
2023/08/24 14:46:01;;;;;;;1.47;0.77;;;;;;;;;;5069059;28;20430;-65